createdAt,value
2018-12-19T00:00:14.265Z,95544.98
2018-12-19T00:02:46.544Z,95553.97
2018-12-19T00:05:18.713Z,95557.82
2018-12-19T00:07:50.862Z,95558.98
2018-12-19T00:10:21.130Z,95557.92
2018-12-19T00:12:51.270Z,95550.89
2018-12-19T00:15:21.574Z,95547.94
2018-12-19T00:17:53.807Z,95542.66
2018-12-19T00:20:24.062Z,95534.52
2018-12-19T00:22:54.273Z,95532.50
2018-12-19T00:25:24.441Z,95540.81
2018-12-19T00:27:56.835Z,95520.30
2018-12-19T00:30:29.026Z,95521.92
2018-12-19T00:33:01.195Z,95519.47
2018-12-19T00:35:33.351Z,95521.16
2018-12-19T00:38:03.561Z,95512.98
2018-12-19T00:40:34.031Z,95515.27
2018-12-19T00:43:04.256Z,95517.95
2018-12-19T00:45:34.666Z,95528.08
2018-12-19T00:48:04.953Z,95517.16
2018-12-19T00:50:36.008Z,95522.47
2018-12-19T00:53:07.762Z,95524.41
2018-12-19T00:55:38.134Z,95522.09
2018-12-19T00:58:08.348Z,95522.13
2018-12-19T01:00:38.641Z,95520.69
2018-12-19T01:03:08.865Z,95528.28
2018-12-19T01:05:39.229Z,95528.85
2018-12-19T01:08:09.489Z,95526.97
2018-12-19T01:10:39.798Z,95524.92
2018-12-19T01:13:10.009Z,95515.14
2018-12-19T01:15:40.193Z,95513.08
2018-12-19T01:18:10.358Z,95521.54
2018-12-19T01:20:40.539Z,95518.86
2018-12-19T01:23:10.678Z,95518.45
2018-12-19T01:25:40.851Z,95519.09
2018-12-19T01:28:11.028Z,95509.32
2018-12-19T01:30:41.204Z,95507.13
2018-12-19T01:33:12.420Z,95508.75
2018-12-19T01:35:42.629Z,95515.74
2018-12-19T01:38:12.992Z,95518.83
2018-12-19T01:40:43.188Z,95525.69
2018-12-19T01:43:13.471Z,95521.48
2018-12-19T01:45:43.629Z,95527.83
2018-12-19T01:48:13.834Z,95524.13
2018-12-19T01:50:44.013Z,95523.27
2018-12-19T01:53:14.188Z,95522.01
2018-12-19T01:55:44.708Z,95517.92
2018-12-19T01:58:14.890Z,95526.08
2018-12-19T02:00:45.153Z,95530.08
2018-12-19T02:03:15.379Z,95527.84
2018-12-19T02:05:45.580Z,95526.95
2018-12-19T02:08:15.921Z,95528.66
2018-12-19T02:10:46.468Z,95530.34
2018-12-19T02:13:16.676Z,95529.59
2018-12-19T02:15:46.930Z,95531.86
2018-12-19T02:18:17.124Z,95528.16
2018-12-19T02:20:47.463Z,95524.48
2018-12-19T02:23:17.752Z,95520.22
2018-12-19T02:25:48.039Z,95524.90
2018-12-19T02:28:18.517Z,95547.17
2018-12-19T02:30:48.750Z,95549.61
2018-12-19T02:33:18.972Z,95560.59
2018-12-19T02:35:49.190Z,95570.98
2018-12-19T02:38:19.433Z,95559.45
2018-12-19T02:40:49.619Z,95554.84
2018-12-19T02:43:20.961Z,95566.14
2018-12-19T02:45:51.312Z,95567.97
2018-12-19T02:48:21.473Z,95574.28
2018-12-19T02:50:51.810Z,95568.47
2018-12-19T02:53:22.042Z,95569.31
2018-12-19T02:55:52.461Z,95573.45
2018-12-19T02:58:22.605Z,95572.29
2018-12-19T03:00:52.885Z,95569.55
2018-12-19T03:03:23.106Z,95572.03
2018-12-19T03:05:53.288Z,95578.30
2018-12-19T03:08:23.471Z,95583.94
2018-12-19T03:10:53.921Z,95598.38
2018-12-19T03:13:24.325Z,95599.97
2018-12-19T03:15:54.505Z,95583.09
2018-12-19T03:18:24.763Z,95566.50
2018-12-19T03:20:55.034Z,95557.41
2018-12-19T03:23:25.221Z,95560.39
2018-12-19T03:25:55.355Z,95562.58
2018-12-19T03:28:25.802Z,95569.24
2018-12-19T03:30:56.005Z,95552.42
2018-12-19T03:33:28.306Z,95559.10
2018-12-19T03:36:00.278Z,95556.86
2018-12-19T03:38:30.633Z,95563.00
2018-12-19T03:41:00.932Z,95561.72
2018-12-19T03:43:31.096Z,95553.57
2018-12-19T03:46:01.262Z,95564.26
2018-12-19T03:48:36.787Z,95559.56
2018-12-19T03:51:06.968Z,95549.58
2018-12-19T03:53:37.119Z,95552.17
2018-12-19T03:56:07.317Z,95550.59
2018-12-19T03:58:37.476Z,95560.51
2018-12-19T04:01:07.693Z,95552.00
2018-12-19T04:03:37.917Z,95554.06
2018-12-19T04:06:08.095Z,95560.20
2018-12-19T04:08:39.445Z,95560.25
2018-12-19T04:11:09.668Z,95562.84
2018-12-19T04:13:39.962Z,95568.08
2018-12-19T04:16:10.219Z,95570.22
2018-12-19T04:18:40.413Z,95574.91
2018-12-19T04:21:10.632Z,95576.09
2018-12-19T04:23:40.772Z,95566.32
2018-12-19T04:26:11.051Z,95563.49
2018-12-19T04:28:41.201Z,95560.84
2018-12-19T04:31:11.382Z,95551.02
2018-12-19T04:33:41.531Z,95548.33
2018-12-19T04:36:11.824Z,95554.72
2018-12-19T04:38:42.298Z,95551.20
2018-12-19T04:41:12.546Z,95552.80
2018-12-19T04:43:42.814Z,95553.26
2018-12-19T04:46:13.059Z,95546.30
2018-12-19T04:48:43.247Z,95547.31
2018-12-19T04:51:13.470Z,95544.30
2018-12-19T04:53:43.716Z,95546.17
2018-12-19T04:56:14.056Z,95542.08
2018-12-19T04:58:44.346Z,95539.66
2018-12-19T05:01:14.650Z,95540.94
2018-12-19T05:03:44.897Z,95535.11
2018-12-19T05:06:15.221Z,95533.64
2018-12-19T05:08:45.533Z,95539.93
2018-12-19T05:11:15.784Z,95534.02
2018-12-19T05:13:45.972Z,95537.38
2018-12-19T05:16:16.298Z,95532.20
2018-12-19T05:18:46.529Z,95535.84
2018-12-19T05:21:16.771Z,95527.90
2018-12-19T05:23:46.973Z,95536.81
2018-12-19T05:26:17.201Z,95542.16
2018-12-19T05:28:47.415Z,95546.62
2018-12-19T05:31:17.638Z,95543.60
2018-12-19T05:33:47.897Z,95543.39
2018-12-19T05:36:18.353Z,95538.48
2018-12-19T05:38:48.589Z,95536.48
2018-12-19T05:41:18.760Z,95532.73
2018-12-19T05:43:48.987Z,95539.09
2018-12-19T05:46:19.323Z,95537.18
2018-12-19T05:48:49.484Z,95534.05
2018-12-19T05:51:19.682Z,95542.13
2018-12-19T05:53:49.893Z,95548.38
2018-12-19T05:56:20.170Z,95548.11
2018-12-19T05:58:50.545Z,95539.16
2018-12-19T06:01:20.705Z,95544.08
2018-12-19T06:03:52.874Z,95545.61
2018-12-19T06:06:23.048Z,95550.81
2018-12-19T06:08:53.282Z,95546.38
2018-12-19T06:11:23.493Z,95557.21
2018-12-19T06:13:53.787Z,95554.41
2018-12-19T06:16:24.230Z,95556.36
2018-12-19T06:18:54.480Z,95558.92
2018-12-19T06:21:24.679Z,95553.04
2018-12-19T06:23:55.414Z,95558.86
2018-12-19T06:26:27.440Z,95549.72
2018-12-19T06:28:59.122Z,95549.94
2018-12-19T06:31:29.443Z,95548.11
2018-12-19T06:34:00.151Z,95548.09
2018-12-19T06:36:30.490Z,95546.89
2018-12-19T06:39:00.625Z,95544.12
2018-12-19T06:41:32.795Z,95541.22
2018-12-19T06:44:02.977Z,95541.38
2018-12-19T06:46:34.737Z,95547.35
2018-12-19T06:49:05.094Z,95556.10
2018-12-19T06:51:35.430Z,95556.36
2018-12-19T06:54:05.791Z,95552.23
2018-12-19T06:56:36.270Z,95565.75
2018-12-19T06:59:06.523Z,95558.47
2018-12-19T07:01:36.790Z,95561.66
2018-12-19T07:04:06.959Z,95559.20
2018-12-19T07:06:37.148Z,95559.06
2018-12-19T07:09:09.260Z,95565.94
2018-12-19T07:11:39.467Z,95562.75
2018-12-19T07:14:09.735Z,95563.30
2018-12-19T07:16:43.490Z,95561.69
2018-12-19T07:19:12.191Z,95567.01
2018-12-19T07:21:42.413Z,95564.89
2018-12-19T07:24:12.729Z,95560.77
2018-12-19T07:26:42.893Z,95566.17
2018-12-19T07:29:13.106Z,95565.08
2018-12-19T07:31:43.351Z,95568.55
2018-12-19T07:34:13.634Z,95570.63
2018-12-19T07:36:43.789Z,95577.77
2018-12-19T07:39:13.967Z,95584.56
2018-12-19T07:41:44.163Z,95585.80
2018-12-19T07:44:14.540Z,95587.91
2018-12-19T07:46:44.693Z,95589.17
2018-12-19T07:49:14.979Z,95587.48
2018-12-19T07:51:45.227Z,95585.41
2018-12-19T07:54:15.508Z,95582.92
2018-12-19T07:56:45.939Z,95588.11
2018-12-19T07:59:16.455Z,95590.20
2018-12-19T08:01:46.686Z,95599.78
2018-12-19T08:04:17.477Z,95600.28
2018-12-19T08:06:47.674Z,95596.80
2018-12-19T08:09:17.959Z,95602.11
2018-12-19T08:11:48.151Z,95599.34
2018-12-19T08:14:18.399Z,95603.27
2018-12-19T08:16:48.622Z,95608.31
2018-12-19T08:19:18.861Z,95600.36
2018-12-19T08:21:49.046Z,95603.17
2018-12-19T08:24:19.203Z,95596.66
2018-12-19T08:26:49.448Z,95591.03
2018-12-19T08:29:19.701Z,95590.74
2018-12-19T08:31:50.375Z,95605.47
2018-12-19T08:34:20.639Z,95606.05
2018-12-19T08:36:50.990Z,95605.05
2018-12-19T08:39:21.646Z,95610.73
2018-12-19T08:41:52.257Z,95603.83
2018-12-19T08:44:22.453Z,95603.47
2018-12-19T08:46:52.725Z,95605.81
2018-12-19T08:49:22.948Z,95608.47
2018-12-19T08:51:53.218Z,95607.25
2018-12-19T08:54:23.503Z,95607.48
2018-12-19T08:56:53.713Z,95600.92
2018-12-19T08:59:23.908Z,95600.68
2018-12-19T09:01:54.120Z,95593.20
2018-12-19T09:04:25.862Z,95598.04
2018-12-19T09:06:56.326Z,95599.14
2018-12-19T09:09:26.567Z,95595.98
2018-12-19T09:11:56.754Z,95604.09
2018-12-19T09:14:27.268Z,95599.01
2018-12-19T09:16:57.416Z,95604.73
2018-12-19T09:19:27.622Z,95607.74
2018-12-19T09:21:58.113Z,95603.39
2018-12-19T09:24:28.358Z,95599.69
2018-12-19T09:26:58.550Z,95594.97
2018-12-19T09:29:28.815Z,95590.67
2018-12-19T09:31:58.978Z,95588.49
2018-12-19T09:34:29.207Z,95585.66
2018-12-19T09:36:59.508Z,95588.47
2018-12-19T09:39:29.650Z,95590.16
2018-12-19T09:41:59.900Z,95599.08
2018-12-19T09:44:30.124Z,95602.65
2018-12-19T09:47:00.615Z,95601.22
2018-12-19T09:49:30.849Z,95600.52
2018-12-19T09:52:01.162Z,95600.13
2018-12-19T09:54:31.442Z,95593.39
2018-12-19T09:57:01.755Z,95590.84
2018-12-19T09:59:31.959Z,95582.35
2018-12-19T10:02:02.391Z,95580.36
2018-12-19T10:04:32.578Z,95584.25
2018-12-19T10:07:02.727Z,95586.22
2018-12-19T10:09:32.954Z,95578.91
2018-12-19T10:12:03.129Z,95575.23
2018-12-19T10:14:34.989Z,95574.97
2018-12-19T10:17:05.430Z,95571.20
2018-12-19T10:19:35.750Z,95565.50
2018-12-19T10:22:06.055Z,95556.50
2018-12-19T10:24:41.503Z,95553.59
2018-12-19T10:27:13.703Z,95548.67
2018-12-19T10:29:43.995Z,95544.75
2018-12-19T10:32:14.222Z,95544.55
2018-12-19T10:34:44.500Z,95536.66
2018-12-19T10:37:14.680Z,95543.55
2018-12-19T10:39:44.975Z,95545.83
2018-12-19T10:42:15.276Z,95546.78
2018-12-19T10:44:45.435Z,95542.83
2018-12-19T10:47:15.602Z,95540.42
2018-12-19T10:49:45.806Z,95541.61
2018-12-19T10:52:15.965Z,95544.09
2018-12-19T10:54:46.165Z,95539.52
2018-12-19T10:57:16.352Z,95536.11
2018-12-19T10:59:46.641Z,95525.83
2018-12-19T11:02:16.815Z,95524.17
2018-12-19T11:04:47.018Z,95521.95
2018-12-19T11:07:17.368Z,95517.38
2018-12-19T11:09:47.585Z,95509.20
2018-12-19T11:12:17.807Z,95506.43
2018-12-19T11:14:48.009Z,95501.20
2018-12-19T11:17:18.186Z,95511.30
2018-12-19T11:19:48.372Z,95506.25
2018-12-19T11:22:18.531Z,95503.41
2018-12-19T11:24:48.700Z,95495.77
2018-12-19T11:27:18.933Z,95491.37
2018-12-19T11:29:49.115Z,95480.91
2018-12-19T11:32:19.304Z,95480.45
2018-12-19T11:34:49.545Z,95485.75
2018-12-19T11:37:19.767Z,95484.44
2018-12-19T11:39:49.933Z,95475.14
2018-12-19T11:42:20.179Z,95469.23
2018-12-19T11:44:50.368Z,95475.76
2018-12-19T11:47:20.694Z,95469.13
2018-12-19T11:49:50.907Z,95454.06
2018-12-19T11:52:21.110Z,95452.99
2018-12-19T11:54:51.333Z,95458.53
2018-12-19T11:57:21.677Z,95450.86
2018-12-19T11:59:52.090Z,95452.09
2018-12-19T12:02:22.308Z,95450.71
2018-12-19T12:04:52.532Z,95443.87
2018-12-19T12:07:24.864Z,95445.46
2018-12-19T12:09:55.905Z,95440.80
2018-12-19T12:12:26.101Z,95438.03
2018-12-19T12:14:56.254Z,95441.64
2018-12-19T12:17:26.446Z,95441.78
2018-12-19T12:19:56.626Z,95438.43
2018-12-19T12:22:26.894Z,95443.42
2018-12-19T12:24:57.085Z,95439.16
2018-12-19T12:27:27.387Z,95442.14
2018-12-19T12:29:57.623Z,95434.07
2018-12-19T12:32:27.847Z,95439.02
2018-12-19T12:34:58.086Z,95437.68
2018-12-19T12:37:28.269Z,95438.72
2018-12-19T12:39:58.589Z,95434.85
2018-12-19T12:42:28.823Z,95433.31
2018-12-19T12:44:59.059Z,95430.45
2018-12-19T12:47:29.220Z,95423.48
2018-12-19T12:49:59.464Z,95424.16
2018-12-19T12:52:29.729Z,95426.32
2018-12-19T12:54:59.950Z,95421.79
2018-12-19T12:57:30.139Z,95418.48
2018-12-19T13:00:00.404Z,95415.28
2018-12-19T13:02:30.661Z,95416.14
2018-12-19T13:05:02.455Z,95403.50
2018-12-19T13:07:32.835Z,95403.50
2018-12-19T13:10:03.031Z,95403.77
2018-12-19T13:12:33.302Z,95400.30
2018-12-19T13:15:03.527Z,95400.67
2018-12-19T13:17:33.849Z,95391.00
2018-12-19T13:20:04.902Z,95405.48
2018-12-19T13:22:35.184Z,95397.42
2018-12-19T13:25:05.942Z,95399.53
2018-12-19T13:27:36.218Z,95389.09
2018-12-19T13:30:08.845Z,95388.34
2018-12-19T13:32:39.094Z,95388.02
2018-12-19T13:35:10.429Z,95400.13
2018-12-19T13:37:40.687Z,95394.05
2018-12-19T13:40:11.269Z,95392.22
2018-12-19T13:42:41.570Z,95390.10
2018-12-19T13:45:11.752Z,95394.19
2018-12-19T13:47:41.946Z,95392.88
2018-12-19T13:50:12.131Z,95387.52
2018-12-19T13:52:42.730Z,95381.44
2018-12-19T13:55:12.902Z,95380.14
2018-12-19T13:57:43.268Z,95376.75
2018-12-19T14:00:13.474Z,95378.71
2018-12-19T14:02:43.790Z,95377.57
2018-12-19T14:05:14.170Z,95373.45
2018-12-19T14:07:44.445Z,95371.23
2018-12-19T14:10:14.766Z,95373.25
2018-12-19T14:12:44.946Z,95368.20
2018-12-19T14:15:15.122Z,95359.41
2018-12-19T14:17:45.339Z,95357.72
2018-12-19T14:20:15.514Z,95353.09
2018-12-19T14:22:45.964Z,95360.34
2018-12-19T14:25:16.190Z,95356.70
2018-12-19T14:27:46.363Z,95356.64
2018-12-19T14:30:16.512Z,95355.52
2018-12-19T14:32:46.721Z,95355.23
2018-12-19T14:35:18.050Z,95360.52
2018-12-19T14:37:48.205Z,95368.34
2018-12-19T14:40:18.756Z,95374.65
2018-12-19T14:42:48.981Z,95372.30
2018-12-19T14:45:19.342Z,95373.97
2018-12-19T14:47:49.754Z,95367.63
2018-12-19T14:50:19.926Z,95370.52
2018-12-19T14:52:50.178Z,95379.17
2018-12-19T14:55:20.318Z,95367.83
2018-12-19T14:57:50.515Z,95377.00
2018-12-19T15:00:21.823Z,95378.84
2018-12-19T15:02:52.426Z,95369.30
2018-12-19T15:05:22.883Z,95372.86
2018-12-19T15:07:53.224Z,95371.23
2018-12-19T15:10:23.450Z,95368.77
2018-12-19T15:12:53.796Z,95364.70
2018-12-19T15:15:24.078Z,95371.12
2018-12-19T15:17:54.417Z,95365.64
2018-12-19T15:20:24.840Z,95360.59
2018-12-19T15:22:55.355Z,95359.01
2018-12-19T15:25:25.872Z,95357.33
2018-12-19T15:27:56.136Z,95354.41
2018-12-19T15:30:26.542Z,95343.62
2018-12-19T15:32:58.027Z,95341.98
2018-12-19T15:35:28.344Z,95337.57
2018-12-19T15:37:58.557Z,95334.70
2018-12-19T15:40:29.376Z,95331.59
2018-12-19T15:42:59.554Z,95330.60
2018-12-19T15:45:29.758Z,95328.18
2018-12-19T15:47:59.918Z,95312.97
2018-12-19T15:50:30.096Z,95309.91
2018-12-19T15:53:00.410Z,95310.30
2018-12-19T15:55:30.676Z,95308.63
2018-12-19T15:58:01.024Z,95295.72
2018-12-19T16:00:31.262Z,95290.37
2018-12-19T16:03:01.624Z,95292.20
2018-12-19T16:05:31.992Z,95294.28
2018-12-19T16:08:02.257Z,95297.63
2018-12-19T16:10:32.523Z,95288.94
2018-12-19T16:13:02.740Z,95280.58
2018-12-19T16:15:32.950Z,95276.70
2018-12-19T16:18:03.220Z,95278.54
2018-12-19T16:20:33.482Z,95276.87
2018-12-19T16:23:03.675Z,95278.89
2018-12-19T16:25:33.824Z,95281.72
2018-12-19T16:28:04.151Z,95284.98
2018-12-19T16:30:35.375Z,95284.77
2018-12-19T16:33:05.649Z,95291.84
2018-12-19T16:35:35.826Z,95290.86
2018-12-19T16:38:06.722Z,95283.91
2018-12-19T16:40:37.020Z,95284.03
2018-12-19T16:43:07.236Z,95290.04
2018-12-19T16:45:37.542Z,95294.22
2018-12-19T16:48:09.392Z,95295.59
2018-12-19T16:50:39.648Z,95299.21
2018-12-19T16:53:09.831Z,95300.22
2018-12-19T16:55:40.014Z,95295.98
2018-12-19T16:58:10.319Z,95301.13
2018-12-19T17:00:40.609Z,95297.13
2018-12-19T17:03:10.777Z,95296.00
2018-12-19T17:05:41.182Z,95296.45
2018-12-19T17:08:11.342Z,95298.03
2018-12-19T17:10:41.598Z,95295.00
2018-12-19T17:13:11.848Z,95288.45
2018-12-19T17:15:42.152Z,95293.88
2018-12-19T17:18:12.496Z,95293.05
2018-12-19T17:20:42.754Z,95292.60
2018-12-19T17:23:12.949Z,95286.47
2018-12-19T17:25:43.242Z,95290.86
2018-12-19T17:28:13.500Z,95292.78
2018-12-19T17:30:43.640Z,95289.22
2018-12-19T17:33:14.020Z,95287.36
2018-12-19T17:35:44.170Z,95284.70
2018-12-19T17:38:14.463Z,95282.48
2018-12-19T17:40:44.830Z,95285.53
2018-12-19T17:43:15.281Z,95288.84
2018-12-19T17:45:45.455Z,95280.75
2018-12-19T17:48:25.335Z,95274.14
2018-12-19T17:51:02.989Z,95265.01
2018-12-19T17:53:46.564Z,95264.08
2018-12-19T17:56:17.621Z,95264.81
2018-12-19T17:58:48.000Z,95257.53
2018-12-19T18:01:18.459Z,95244.50
2018-12-19T18:03:49.655Z,95238.91
2018-12-19T18:06:20.603Z,95226.96
2018-12-19T18:08:50.816Z,95215.88
2018-12-19T18:11:21.033Z,95204.36
2018-12-19T18:13:51.510Z,95210.53
2018-12-19T18:16:21.697Z,95211.72
2018-12-19T18:18:51.886Z,95215.73
2018-12-19T18:21:22.033Z,95217.75
2018-12-19T18:23:52.229Z,95221.95
2018-12-19T18:26:22.587Z,95217.84
2018-12-19T18:28:52.903Z,95217.89
2018-12-19T18:31:23.156Z,95208.80
2018-12-19T18:33:54.032Z,95203.52
2018-12-19T18:36:24.265Z,95212.52
2018-12-19T18:38:54.589Z,95214.06
2018-12-19T18:41:24.698Z,95216.70
2018-12-19T18:43:56.052Z,95223.05
2018-12-19T18:46:26.381Z,95217.17
2018-12-19T18:48:56.708Z,95217.91
2018-12-19T18:51:26.892Z,95220.48
2018-12-19T18:53:57.031Z,95227.47
2018-12-19T18:56:27.444Z,95233.45
2018-12-19T18:58:57.760Z,95241.98
2018-12-19T19:01:27.997Z,95243.90
2018-12-19T19:03:58.383Z,95240.52
2018-12-19T19:06:28.635Z,95247.84
2018-12-19T19:08:58.841Z,95249.78
2018-12-19T19:11:29.020Z,95255.94
2018-12-19T19:13:59.189Z,95261.89
2018-12-19T19:16:29.719Z,95264.64
2018-12-19T19:19:00.067Z,95262.36
2018-12-19T19:21:30.173Z,95260.59
2018-12-19T19:24:00.508Z,95256.11
2018-12-19T19:26:31.068Z,95250.33
2018-12-19T19:29:02.693Z,95260.89
2018-12-19T19:31:33.038Z,95260.60
2018-12-19T19:34:03.385Z,95270.03
2018-12-19T19:36:33.559Z,95280.52
2018-12-19T19:39:03.954Z,95272.81
2018-12-19T19:41:36.281Z,95286.73
2018-12-19T19:44:06.619Z,95293.33
2018-12-19T19:46:36.905Z,95284.91
2018-12-19T19:49:07.124Z,95282.50
2018-12-19T19:51:37.412Z,95286.27
2018-12-19T19:54:07.670Z,95271.89
2018-12-19T19:56:37.823Z,95281.30
2018-12-19T19:59:08.123Z,95286.53
2018-12-19T20:01:38.462Z,95288.20
2018-12-19T20:04:08.756Z,95289.56
2018-12-19T20:06:39.163Z,95296.62
2018-12-19T20:09:10.124Z,95303.69
2018-12-19T20:11:41.570Z,95303.96
2018-12-19T20:14:11.827Z,95303.06
2018-12-19T20:16:47.117Z,95302.12
2018-12-19T20:19:17.332Z,95299.10
2018-12-19T20:21:47.610Z,95299.92
2018-12-19T20:24:18.891Z,95298.47
2018-12-19T20:26:49.111Z,95297.27
2018-12-19T20:29:19.450Z,95305.99
2018-12-19T20:31:49.899Z,95305.53
2018-12-19T20:34:20.086Z,95309.38
2018-12-19T20:36:50.278Z,95310.20
2018-12-19T20:39:20.476Z,95317.64
2018-12-19T20:41:51.322Z,95316.26
2018-12-19T20:44:21.585Z,95319.54
2018-12-19T20:46:51.892Z,95332.11
2018-12-19T20:49:22.051Z,95327.63
2018-12-19T20:51:52.885Z,95323.59
2018-12-19T20:54:23.173Z,95325.23
2018-12-19T20:56:53.480Z,95325.80
2018-12-19T20:59:23.798Z,95323.58
2018-12-19T21:01:54.000Z,95323.22
2018-12-19T21:04:24.286Z,95316.98
2018-12-19T21:06:54.568Z,95313.78
2018-12-19T21:09:24.744Z,95312.39
2018-12-19T21:11:54.913Z,95321.56
2018-12-19T21:14:25.127Z,95322.76
2018-12-19T21:17:00.642Z,95317.62
2018-12-19T21:19:30.859Z,95322.48
2018-12-19T21:22:01.153Z,95321.83
2018-12-19T21:24:31.482Z,95330.27
2018-12-19T21:27:01.653Z,95333.84
2018-12-19T21:29:31.970Z,95330.84
2018-12-19T21:32:02.191Z,95325.61
2018-12-19T21:34:32.579Z,95321.64
2018-12-19T21:37:02.875Z,95316.22
2018-12-19T21:39:33.273Z,95325.01
2018-12-19T21:42:03.467Z,95331.09
2018-12-19T21:44:33.786Z,95329.09
2018-12-19T21:47:04.075Z,95330.09
2018-12-19T21:49:34.475Z,95335.66
2018-12-19T21:52:04.660Z,95336.41
2018-12-19T21:54:35.089Z,95337.52
2018-12-19T21:57:05.264Z,95342.09
2018-12-19T21:59:35.544Z,95339.81
2018-12-19T22:02:06.886Z,95339.70
2018-12-19T22:04:37.261Z,95336.22
2018-12-19T22:07:07.517Z,95337.75
2018-12-19T22:09:37.896Z,95337.47
2018-12-19T22:12:08.042Z,95336.74
2018-12-19T22:14:38.206Z,95337.66
2018-12-19T22:17:13.477Z,95338.98
2018-12-19T22:19:43.633Z,95341.44
2018-12-19T22:22:15.229Z,95335.84
2018-12-19T22:24:45.500Z,95331.44
2018-12-19T22:27:15.691Z,95323.72
2018-12-19T22:29:45.875Z,95323.91
2018-12-19T22:32:16.046Z,95322.72
2018-12-19T22:34:46.318Z,95316.84
2018-12-19T22:37:16.522Z,95324.73
2018-12-19T22:39:46.756Z,95331.55
2018-12-19T22:42:17.030Z,95329.45
2018-12-19T22:44:47.436Z,95324.03
2018-12-19T22:47:24.561Z,95322.91
2018-12-19T22:49:54.785Z,95315.84
2018-12-19T22:52:25.098Z,95316.58
2018-12-19T22:54:55.432Z,95321.16
2018-12-19T22:57:25.698Z,95320.53
2018-12-19T22:59:56.009Z,95317.41
2018-12-19T23:02:31.580Z,95321.64
2018-12-19T23:05:01.761Z,95317.22
2018-12-19T23:07:32.373Z,95315.84
2018-12-19T23:10:02.687Z,95324.64
2018-12-19T23:12:34.227Z,95314.11
2018-12-19T23:15:04.590Z,95315.72
2018-12-19T23:17:40.637Z,95312.80
2018-12-19T23:20:16.775Z,95312.63
2018-12-19T23:22:52.455Z,95310.18
2018-12-19T23:25:28.047Z,95313.36
2018-12-19T23:28:00.207Z,95310.70
2018-12-19T23:30:30.669Z,95309.08
2018-12-19T23:33:00.983Z,95309.53
2018-12-19T23:35:31.158Z,95314.41
2018-12-19T23:38:01.712Z,95333.66
2018-12-19T23:40:38.652Z,95332.19
2018-12-19T23:43:09.051Z,95320.55
2018-12-19T23:45:39.305Z,95317.50
2018-12-19T23:48:09.549Z,95321.53
2018-12-19T23:50:39.804Z,95321.55
2018-12-19T23:53:10.195Z,95323.84
2018-12-19T23:55:40.490Z,95317.31
2018-12-19T23:58:10.667Z,95322.28
